sensor_id;sensor_type;location;lat;lon;timestamp;P1;durP1;ratioP1;P2;durP2;ratioP2
45887;SDS011;31595;51.418;7.572;2023-11-21T00:00:27;12.18;;;6.75;;
45887;SDS011;31595;51.418;7.572;2023-11-21T00:02:54;10.27;;;5.45;;
45887;SDS011;31595;51.418;7.572;2023-11-21T00:05:21;15.40;;;8.35;;
45887;SDS011;31595;51.418;7.572;2023-11-21T00:07:48;7.68;;;5.32;;
45887;SDS011;31595;51.418;7.572;2023-11-21T00:10:16;8.00;;;5.07;;
45887;SDS011;31595;51.418;7.572;2023-11-21T00:12:43;7.13;;;5.10;;
45887;SDS011;31595;51.418;7.572;2023-11-21T00:15:11;9.98;;;5.00;;
45887;SDS011;31595;51.418;7.572;2023-11-21T00:17:38;11.80;;;5.80;;
45887;SDS011;31595;51.418;7.572;2023-11-21T00:20:05;8.18;;;5.03;;
45887;SDS011;31595;51.418;7.572;2023-11-21T00:22:33;9.95;;;5.20;;
45887;SDS011;31595;51.418;7.572;2023-11-21T00:24:59;9.27;;;5.38;;
45887;SDS011;31595;51.418;7.572;2023-11-21T00:27:26;8.70;;;5.38;;
45887;SDS011;31595;51.418;7.572;2023-11-21T00:29:53;9.50;;;5.03;;
45887;SDS011;31595;51.418;7.572;2023-11-21T00:32:21;10.85;;;4.50;;
45887;SDS011;31595;51.418;7.572;2023-11-21T00:34:48;9.77;;;4.68;;
45887;SDS011;31595;51.418;7.572;2023-11-21T00:37:15;8.25;;;4.97;;
45887;SDS011;31595;51.418;7.572;2023-11-21T00:39:41;7.55;;;4.47;;
45887;SDS011;31595;51.418;7.572;2023-11-21T00:42:08;6.63;;;4.78;;
45887;SDS011;31595;51.418;7.572;2023-11-21T00:44:37;8.02;;;4.18;;
45887;SDS011;31595;51.418;7.572;2023-11-21T00:47:04;8.70;;;4.85;;
45887;SDS011;31595;51.418;7.572;2023-11-21T00:49:32;8.45;;;4.90;;
45887;SDS011;31595;51.418;7.572;2023-11-21T00:51:59;9.02;;;4.90;;
45887;SDS011;31595;51.418;7.572;2023-11-21T00:54:26;10.13;;;4.68;;
45887;SDS011;31595;51.418;7.572;2023-11-21T00:56:53;9.57;;;4.70;;
45887;SDS011;31595;51.418;7.572;2023-11-21T00:59:20;7.50;;;4.80;;
45887;SDS011;31595;51.418;7.572;2023-11-21T01:01:48;9.85;;;5.20;;
45887;SDS011;31595;51.418;7.572;2023-11-21T01:04:15;6.40;;;4.60;;
45887;SDS011;31595;51.418;7.572;2023-11-21T01:06:43;5.47;;;4.13;;
45887;SDS011;31595;51.418;7.572;2023-11-21T01:09:10;13.05;;;6.35;;
45887;SDS011;31595;51.418;7.572;2023-11-21T01:11:38;7.18;;;5.00;;
45887;SDS011;31595;51.418;7.572;2023-11-21T01:14:04;10.93;;;5.22;;
45887;SDS011;31595;51.418;7.572;2023-11-21T01:16:32;8.23;;;4.97;;
45887;SDS011;31595;51.418;7.572;2023-11-21T01:18:58;9.38;;;5.32;;
45887;SDS011;31595;51.418;7.572;2023-11-21T01:21:25;9.60;;;5.05;;
45887;SDS011;31595;51.418;7.572;2023-11-21T01:23:54;7.88;;;4.72;;
45887;SDS011;31595;51.418;7.572;2023-11-21T01:26:21;6.88;;;5.07;;
45887;SDS011;31595;51.418;7.572;2023-11-21T01:28:48;13.02;;;5.07;;
45887;SDS011;31595;51.418;7.572;2023-11-21T01:31:15;10.40;;;5.30;;
45887;SDS011;31595;51.418;7.572;2023-11-21T01:33:42;6.65;;;5.00;;
45887;SDS011;31595;51.418;7.572;2023-11-21T01:36:09;8.35;;;5.35;;
45887;SDS011;31595;51.418;7.572;2023-11-21T01:38:36;8.90;;;4.93;;
45887;SDS011;31595;51.418;7.572;2023-11-21T01:41:05;8.02;;;5.35;;
45887;SDS011;31595;51.418;7.572;2023-11-21T01:43:31;8.65;;;4.68;;
45887;SDS011;31595;51.418;7.572;2023-11-21T01:45:59;10.75;;;5.70;;
45887;SDS011;31595;51.418;7.572;2023-11-21T01:48:26;12.63;;;6.57;;
45887;SDS011;31595;51.418;7.572;2023-11-21T01:50:54;11.32;;;6.38;;
45887;SDS011;31595;51.418;7.572;2023-11-21T01:53:20;9.00;;;5.95;;
45887;SDS011;31595;51.418;7.572;2023-11-21T01:55:47;10.70;;;7.53;;
45887;SDS011;31595;51.418;7.572;2023-11-21T01:58:16;9.02;;;5.75;;
45887;SDS011;31595;51.418;7.572;2023-11-21T02:00:43;10.18;;;5.80;;
45887;SDS011;31595;51.418;7.572;2023-11-21T02:03:09;11.60;;;6.78;;
45887;SDS011;31595;51.418;7.572;2023-11-21T02:05:36;12.55;;;6.78;;
45887;SDS011;31595;51.418;7.572;2023-11-21T02:08:03;11.38;;;6.40;;
45887;SDS011;31595;51.418;7.572;2023-11-21T02:10:30;9.43;;;6.13;;
45887;SDS011;31595;51.418;7.572;2023-11-21T02:12:57;12.15;;;5.80;;
45887;SDS011;31595;51.418;7.572;2023-11-21T02:15:27;11.50;;;6.53;;
45887;SDS011;31595;51.418;7.572;2023-11-21T02:17:54;12.52;;;6.68;;
45887;SDS011;31595;51.418;7.572;2023-11-21T02:20:23;9.98;;;6.28;;
45887;SDS011;31595;51.418;7.572;2023-11-21T02:22:53;11.35;;;7.05;;
45887;SDS011;31595;51.418;7.572;2023-11-21T02:25:23;10.15;;;6.30;;
45887;SDS011;31595;51.418;7.572;2023-11-21T02:27:50;8.27;;;6.20;;
45887;SDS011;31595;51.418;7.572;2023-11-21T02:30:16;8.27;;;5.93;;
45887;SDS011;31595;51.418;7.572;2023-11-21T02:32:44;9.20;;;5.90;;
45887;SDS011;31595;51.418;7.572;2023-11-21T02:35:13;11.75;;;6.93;;
45887;SDS011;31595;51.418;7.572;2023-11-21T02:37:41;11.25;;;7.22;;
45887;SDS011;31595;51.418;7.572;2023-11-21T02:40:10;11.85;;;7.97;;
45887;SDS011;31595;51.418;7.572;2023-11-21T02:42:38;11.63;;;7.45;;
45887;SDS011;31595;51.418;7.572;2023-11-21T02:45:05;10.98;;;7.57;;
45887;SDS011;31595;51.418;7.572;2023-11-21T02:47:32;11.18;;;7.45;;
45887;SDS011;31595;51.418;7.572;2023-11-21T02:49:59;9.82;;;6.80;;
45887;SDS011;31595;51.418;7.572;2023-11-21T02:52:26;10.32;;;6.55;;
45887;SDS011;31595;51.418;7.572;2023-11-21T02:54:53;10.10;;;6.18;;
45887;SDS011;31595;51.418;7.572;2023-11-21T02:57:21;11.52;;;7.97;;
45887;SDS011;31595;51.418;7.572;2023-11-21T02:59:48;11.48;;;7.15;;
45887;SDS011;31595;51.418;7.572;2023-11-21T03:02:15;9.52;;;7.20;;
45887;SDS011;31595;51.418;7.572;2023-11-21T03:04:42;12.73;;;7.45;;
45887;SDS011;31595;51.418;7.572;2023-11-21T03:07:09;12.07;;;7.65;;
45887;SDS011;31595;51.418;7.572;2023-11-21T03:09:36;11.57;;;7.60;;
45887;SDS011;31595;51.418;7.572;2023-11-21T03:12:03;18.30;;;9.15;;
45887;SDS011;31595;51.418;7.572;2023-11-21T03:14:31;17.33;;;10.18;;
45887;SDS011;31595;51.418;7.572;2023-11-21T03:16:59;9.20;;;6.93;;
45887;SDS011;31595;51.418;7.572;2023-11-21T03:19:25;14.63;;;8.50;;
45887;SDS011;31595;51.418;7.572;2023-11-21T03:21:52;11.30;;;8.00;;
45887;SDS011;31595;51.418;7.572;2023-11-21T03:24:19;10.20;;;8.27;;
45887;SDS011;31595;51.418;7.572;2023-11-21T03:26:48;10.25;;;7.75;;
45887;SDS011;31595;51.418;7.572;2023-11-21T03:29:17;13.98;;;8.43;;
45887;SDS011;31595;51.418;7.572;2023-11-21T03:31:45;12.27;;;8.43;;
45887;SDS011;31595;51.418;7.572;2023-11-21T03:34:14;11.65;;;8.48;;
45887;SDS011;31595;51.418;7.572;2023-11-21T03:36:41;12.63;;;8.45;;
45887;SDS011;31595;51.418;7.572;2023-11-21T03:39:08;13.02;;;8.30;;
45887;SDS011;31595;51.418;7.572;2023-11-21T03:41:35;10.35;;;7.28;;
45887;SDS011;31595;51.418;7.572;2023-11-21T03:44:01;19.08;;;10.70;;
45887;SDS011;31595;51.418;7.572;2023-11-21T03:46:28;13.13;;;8.02;;
45887;SDS011;31595;51.418;7.572;2023-11-21T03:48:56;10.15;;;7.35;;
45887;SDS011;31595;51.418;7.572;2023-11-21T03:51:23;9.88;;;7.45;;
45887;SDS011;31595;51.418;7.572;2023-11-21T03:53:50;11.13;;;7.72;;
45887;SDS011;31595;51.418;7.572;2023-11-21T03:56:17;9.98;;;8.05;;
45887;SDS011;31595;51.418;7.572;2023-11-21T03:58:44;13.13;;;7.97;;
45887;SDS011;31595;51.418;7.572;2023-11-21T04:01:10;10.95;;;8.05;;
45887;SDS011;31595;51.418;7.572;2023-11-21T04:03:37;13.48;;;8.45;;
45887;SDS011;31595;51.418;7.572;2023-11-21T04:06:07;14.05;;;8.38;;
45887;SDS011;31595;51.418;7.572;2023-11-21T04:08:34;13.57;;;8.98;;
45887;SDS011;31595;51.418;7.572;2023-11-21T04:11:01;12.25;;;8.98;;
45887;SDS011;31595;51.418;7.572;2023-11-21T04:13:27;14.15;;;9.10;;
45887;SDS011;31595;51.418;7.572;2023-11-21T04:15:54;12.75;;;8.63;;
45887;SDS011;31595;51.418;7.572;2023-11-21T04:18:22;14.18;;;9.20;;
45887;SDS011;31595;51.418;7.572;2023-11-21T04:20:49;13.48;;;9.25;;
45887;SDS011;31595;51.418;7.572;2023-11-21T04:23:18;16.40;;;10.05;;
45887;SDS011;31595;51.418;7.572;2023-11-21T04:25:45;14.93;;;8.40;;
45887;SDS011;31595;51.418;7.572;2023-11-21T04:28:12;11.43;;;8.70;;
45887;SDS011;31595;51.418;7.572;2023-11-21T04:30:38;14.18;;;8.90;;
45887;SDS011;31595;51.418;7.572;2023-11-21T04:33:06;10.65;;;8.35;;
45887;SDS011;31595;51.418;7.572;2023-11-21T04:35:33;11.60;;;8.25;;
45887;SDS011;31595;51.418;7.572;2023-11-21T04:37:59;11.90;;;9.18;;
45887;SDS011;31595;51.418;7.572;2023-11-21T04:40:28;12.05;;;8.70;;
45887;SDS011;31595;51.418;7.572;2023-11-21T04:42:54;13.40;;;8.68;;
45887;SDS011;31595;51.418;7.572;2023-11-21T04:45:22;12.88;;;9.00;;
45887;SDS011;31595;51.418;7.572;2023-11-21T04:47:52;13.65;;;9.10;;
45887;SDS011;31595;51.418;7.572;2023-11-21T04:52:45;14.20;;;9.63;;
45887;SDS011;31595;51.418;7.572;2023-11-21T04:55:12;11.73;;;8.48;;
45887;SDS011;31595;51.418;7.572;2023-11-21T04:57:42;14.38;;;9.75;;
45887;SDS011;31595;51.418;7.572;2023-11-21T05:00:09;12.98;;;9.20;;
45887;SDS011;31595;51.418;7.572;2023-11-21T05:02:36;14.77;;;10.20;;
45887;SDS011;31595;51.418;7.572;2023-11-21T05:05:03;14.35;;;10.55;;
45887;SDS011;31595;51.418;7.572;2023-11-21T05:07:31;15.20;;;10.75;;
45887;SDS011;31595;51.418;7.572;2023-11-21T05:10:00;15.48;;;10.90;;
45887;SDS011;31595;51.418;7.572;2023-11-21T05:12:30;16.50;;;11.15;;
45887;SDS011;31595;51.418;7.572;2023-11-21T05:15:00;17.08;;;10.38;;
45887;SDS011;31595;51.418;7.572;2023-11-21T05:17:28;14.55;;;9.82;;
45887;SDS011;31595;51.418;7.572;2023-11-21T05:19:55;15.05;;;9.88;;
45887;SDS011;31595;51.418;7.572;2023-11-21T05:22:22;15.73;;;9.70;;
45887;SDS011;31595;51.418;7.572;2023-11-21T05:24:48;15.20;;;9.57;;
45887;SDS011;31595;51.418;7.572;2023-11-21T05:27:16;15.27;;;9.93;;
45887;SDS011;31595;51.418;7.572;2023-11-21T05:29:42;16.95;;;11.20;;
45887;SDS011;31595;51.418;7.572;2023-11-21T05:32:13;18.08;;;11.45;;
45887;SDS011;31595;51.418;7.572;2023-11-21T05:34:39;16.48;;;11.15;;
45887;SDS011;31595;51.418;7.572;2023-11-21T05:37:06;16.58;;;10.85;;
45887;SDS011;31595;51.418;7.572;2023-11-21T05:39:33;12.98;;;9.90;;
45887;SDS011;31595;51.418;7.572;2023-11-21T05:42:01;14.60;;;10.18;;
45887;SDS011;31595;51.418;7.572;2023-11-21T05:44:29;14.20;;;9.30;;
45887;SDS011;31595;51.418;7.572;2023-11-21T05:46:56;15.05;;;9.75;;
45887;SDS011;31595;51.418;7.572;2023-11-21T05:49:25;15.50;;;10.25;;
45887;SDS011;31595;51.418;7.572;2023-11-21T05:51:52;15.15;;;10.25;;
45887;SDS011;31595;51.418;7.572;2023-11-21T05:54:20;13.73;;;10.43;;
45887;SDS011;31595;51.418;7.572;2023-11-21T05:56:47;15.60;;;11.30;;
45887;SDS011;31595;51.418;7.572;2023-11-21T05:59:14;16.92;;;11.10;;
45887;SDS011;31595;51.418;7.572;2023-11-21T06:01:41;17.67;;;11.07;;
45887;SDS011;31595;51.418;7.572;2023-11-21T06:04:08;15.45;;;10.05;;
45887;SDS011;31595;51.418;7.572;2023-11-21T06:06:37;15.95;;;9.70;;
45887;SDS011;31595;51.418;7.572;2023-11-21T06:09:04;14.18;;;10.02;;
45887;SDS011;31595;51.418;7.572;2023-11-21T06:14:00;15.35;;;10.43;;
45887;SDS011;31595;51.418;7.572;2023-11-21T06:16:27;19.20;;;10.23;;
45887;SDS011;31595;51.418;7.572;2023-11-21T06:18:54;22.83;;;13.13;;
45887;SDS011;31595;51.418;7.572;2023-11-21T06:21:21;14.57;;;9.82;;
45887;SDS011;31595;51.418;7.572;2023-11-21T06:23:49;16.17;;;10.55;;
45887;SDS011;31595;51.418;7.572;2023-11-21T06:26:18;21.60;;;11.45;;
45887;SDS011;31595;51.418;7.572;2023-11-21T06:28:46;16.35;;;10.73;;
45887;SDS011;31595;51.418;7.572;2023-11-21T06:31:12;14.55;;;10.02;;
45887;SDS011;31595;51.418;7.572;2023-11-21T06:33:39;15.85;;;9.70;;
45887;SDS011;31595;51.418;7.572;2023-11-21T06:36:07;15.57;;;10.32;;
45887;SDS011;31595;51.418;7.572;2023-11-21T06:38:34;16.50;;;10.40;;
45887;SDS011;31595;51.418;7.572;2023-11-21T06:41:02;16.50;;;10.30;;
45887;SDS011;31595;51.418;7.572;2023-11-21T06:43:30;18.55;;;11.38;;
45887;SDS011;31595;51.418;7.572;2023-11-21T06:45:57;15.35;;;11.10;;
45887;SDS011;31595;51.418;7.572;2023-11-21T06:48:24;15.27;;;10.13;;
45887;SDS011;31595;51.418;7.572;2023-11-21T06:50:50;17.08;;;9.45;;
45887;SDS011;31595;51.418;7.572;2023-11-21T06:53:17;14.70;;;10.13;;
45887;SDS011;31595;51.418;7.572;2023-11-21T06:55:44;15.02;;;10.95;;
45887;SDS011;31595;51.418;7.572;2023-11-21T06:58:13;14.80;;;10.93;;
45887;SDS011;31595;51.418;7.572;2023-11-21T07:00:41;14.27;;;10.45;;
45887;SDS011;31595;51.418;7.572;2023-11-21T07:03:12;14.85;;;10.00;;
45887;SDS011;31595;51.418;7.572;2023-11-21T07:05:38;16.65;;;10.85;;
45887;SDS011;31595;51.418;7.572;2023-11-21T07:08:05;16.95;;;10.50;;
45887;SDS011;31595;51.418;7.572;2023-11-21T07:10:33;16.75;;;11.13;;
45887;SDS011;31595;51.418;7.572;2023-11-21T07:13:00;14.88;;;10.75;;
45887;SDS011;31595;51.418;7.572;2023-11-21T07:15:28;14.85;;;10.00;;
45887;SDS011;31595;51.418;7.572;2023-11-21T07:17:55;16.17;;;10.18;;
45887;SDS011;31595;51.418;7.572;2023-11-21T07:20:22;15.63;;;11.02;;
45887;SDS011;31595;51.418;7.572;2023-11-21T07:22:49;14.02;;;9.85;;
45887;SDS011;31595;51.418;7.572;2023-11-21T07:25:16;16.58;;;10.05;;
45887;SDS011;31595;51.418;7.572;2023-11-21T07:27:42;18.08;;;13.05;;
45887;SDS011;31595;51.418;7.572;2023-11-21T07:30:10;17.60;;;11.82;;
45887;SDS011;31595;51.418;7.572;2023-11-21T07:32:40;14.25;;;9.60;;
45887;SDS011;31595;51.418;7.572;2023-11-21T07:35:07;17.67;;;11.00;;
45887;SDS011;31595;51.418;7.572;2023-11-21T07:37:33;20.73;;;11.65;;
45887;SDS011;31595;51.418;7.572;2023-11-21T07:40:00;15.88;;;10.52;;
45887;SDS011;31595;51.418;7.572;2023-11-21T07:42:28;13.57;;;10.05;;
45887;SDS011;31595;51.418;7.572;2023-11-21T07:44:55;18.73;;;11.65;;
45887;SDS011;31595;51.418;7.572;2023-11-21T07:47:21;14.75;;;10.35;;
45887;SDS011;31595;51.418;7.572;2023-11-21T07:49:53;16.60;;;11.48;;
45887;SDS011;31595;51.418;7.572;2023-11-21T07:52:22;17.65;;;12.55;;
45887;SDS011;31595;51.418;7.572;2023-11-21T07:54:52;15.27;;;11.48;;
45887;SDS011;31595;51.418;7.572;2023-11-21T07:57:19;18.58;;;12.73;;
45887;SDS011;31595;51.418;7.572;2023-11-21T07:59:45;18.80;;;12.32;;
45887;SDS011;31595;51.418;7.572;2023-11-21T08:02:12;20.65;;;12.48;;
45887;SDS011;31595;51.418;7.572;2023-11-21T08:04:39;20.73;;;13.10;;
45887;SDS011;31595;51.418;7.572;2023-11-21T08:07:08;20.30;;;11.90;;
45887;SDS011;31595;51.418;7.572;2023-11-21T08:12:39;18.33;;;12.00;;
45887;SDS011;31595;51.418;7.572;2023-11-21T08:15:08;16.30;;;11.68;;
45887;SDS011;31595;51.418;7.572;2023-11-21T08:17:35;19.77;;;11.50;;
45887;SDS011;31595;51.418;7.572;2023-11-21T08:20:02;18.65;;;11.27;;
45887;SDS011;31595;51.418;7.572;2023-11-21T08:22:31;19.33;;;13.02;;
45887;SDS011;31595;51.418;7.572;2023-11-21T08:24:59;20.98;;;11.88;;
45887;SDS011;31595;51.418;7.572;2023-11-21T08:27:26;18.17;;;12.55;;
45887;SDS011;31595;51.418;7.572;2023-11-21T08:29:53;15.15;;;10.70;;
45887;SDS011;31595;51.418;7.572;2023-11-21T08:32:20;17.13;;;11.50;;
45887;SDS011;31595;51.418;7.572;2023-11-21T08:34:47;25.02;;;12.98;;
45887;SDS011;31595;51.418;7.572;2023-11-21T08:37:16;19.25;;;12.25;;
45887;SDS011;31595;51.418;7.572;2023-11-21T08:39:44;17.02;;;12.13;;
45887;SDS011;31595;51.418;7.572;2023-11-21T08:42:11;20.17;;;14.13;;
45887;SDS011;31595;51.418;7.572;2023-11-21T08:44:38;19.02;;;12.55;;
45887;SDS011;31595;51.418;7.572;2023-11-21T08:47:05;19.83;;;13.02;;
45887;SDS011;31595;51.418;7.572;2023-11-21T08:49:32;17.50;;;10.90;;
45887;SDS011;31595;51.418;7.572;2023-11-21T08:51:59;20.90;;;12.05;;
45887;SDS011;31595;51.418;7.572;2023-11-21T08:54:25;18.35;;;13.07;;
45887;SDS011;31595;51.418;7.572;2023-11-21T08:56:53;21.60;;;12.88;;
45887;SDS011;31595;51.418;7.572;2023-11-21T08:59:21;20.98;;;13.60;;
45887;SDS011;31595;51.418;7.572;2023-11-21T09:01:48;21.42;;;13.45;;
45887;SDS011;31595;51.418;7.572;2023-11-21T09:04:14;23.88;;;14.60;;
45887;SDS011;31595;51.418;7.572;2023-11-21T09:06:41;20.63;;;13.98;;
45887;SDS011;31595;51.418;7.572;2023-11-21T09:09:08;21.92;;;13.55;;
45887;SDS011;31595;51.418;7.572;2023-11-21T09:11:35;24.65;;;16.38;;
45887;SDS011;31595;51.418;7.572;2023-11-21T09:14:03;21.90;;;15.18;;
45887;SDS011;31595;51.418;7.572;2023-11-21T09:16:30;22.50;;;14.93;;
45887;SDS011;31595;51.418;7.572;2023-11-21T09:18:58;27.02;;;17.17;;
45887;SDS011;31595;51.418;7.572;2023-11-21T09:21:24;21.95;;;14.65;;
45887;SDS011;31595;51.418;7.572;2023-11-21T09:23:51;25.95;;;15.73;;
45887;SDS011;31595;51.418;7.572;2023-11-21T09:26:19;24.42;;;13.88;;
45887;SDS011;31595;51.418;7.572;2023-11-21T09:28:46;26.05;;;15.95;;
45887;SDS011;31595;51.418;7.572;2023-11-21T09:31:14;25.75;;;14.68;;
45887;SDS011;31595;51.418;7.572;2023-11-21T09:33:42;25.45;;;15.40;;
45887;SDS011;31595;51.418;7.572;2023-11-21T09:36:11;23.45;;;15.88;;
45887;SDS011;31595;51.418;7.572;2023-11-21T09:41:06;23.73;;;14.77;;
45887;SDS011;31595;51.418;7.572;2023-11-21T09:43:43;23.13;;;15.43;;
45887;SDS011;31595;51.418;7.572;2023-11-21T09:48:47;23.45;;;15.57;;
45887;SDS011;31595;51.418;7.572;2023-11-21T09:51:16;24.63;;;16.33;;
45887;SDS011;31595;51.418;7.572;2023-11-21T09:53:45;29.85;;;18.77;;
45887;SDS011;31595;51.418;7.572;2023-11-21T09:56:12;25.77;;;15.75;;
45887;SDS011;31595;51.418;7.572;2023-11-21T09:58:44;29.02;;;18.25;;
45887;SDS011;31595;51.418;7.572;2023-11-21T10:01:11;28.63;;;18.35;;
45887;SDS011;31595;51.418;7.572;2023-11-21T10:03:40;28.23;;;17.60;;
45887;SDS011;31595;51.418;7.572;2023-11-21T10:06:09;34.58;;;21.02;;
45887;SDS011;31595;51.418;7.572;2023-11-21T10:08:36;28.90;;;18.63;;
45887;SDS011;31595;51.418;7.572;2023-11-21T10:11:03;32.80;;;19.48;;
45887;SDS011;31595;51.418;7.572;2023-11-21T10:13:32;27.17;;;17.50;;
45887;SDS011;31595;51.418;7.572;2023-11-21T10:16:00;29.83;;;19.58;;
45887;SDS011;31595;51.418;7.572;2023-11-21T10:18:31;29.73;;;18.67;;
45887;SDS011;31595;51.418;7.572;2023-11-21T10:20:59;29.48;;;19.23;;
45887;SDS011;31595;51.418;7.572;2023-11-21T10:23:28;30.55;;;19.27;;
45887;SDS011;31595;51.418;7.572;2023-11-21T12:42:37;18.42;;;12.93;;
45887;SDS011;31595;51.418;7.572;2023-11-21T12:51:10;16.88;;;12.10;;
45887;SDS011;31595;51.418;7.572;2023-11-21T12:53:37;17.33;;;11.45;;
45887;SDS011;31595;51.418;7.572;2023-11-21T12:56:06;19.33;;;12.02;;
45887;SDS011;31595;51.418;7.572;2023-11-21T12:58:36;16.88;;;12.07;;
45887;SDS011;31595;51.418;7.572;2023-11-21T13:01:05;14.90;;;10.80;;
45887;SDS011;31595;51.418;7.572;2023-11-21T13:03:37;15.73;;;10.85;;
45887;SDS011;31595;51.418;7.572;2023-11-21T13:06:04;15.15;;;11.75;;
45887;SDS011;31595;51.418;7.572;2023-11-21T13:08:33;16.08;;;11.57;;
45887;SDS011;31595;51.418;7.572;2023-11-21T13:10:59;18.13;;;12.75;;
45887;SDS011;31595;51.418;7.572;2023-11-21T13:13:28;17.27;;;11.93;;
45887;SDS011;31595;51.418;7.572;2023-11-21T13:15:56;16.67;;;12.30;;
45887;SDS011;31595;51.418;7.572;2023-11-21T13:18:27;17.30;;;12.30;;
45887;SDS011;31595;51.418;7.572;2023-11-21T13:20:54;15.57;;;11.65;;
45887;SDS011;31595;51.418;7.572;2023-11-21T13:23:22;17.92;;;11.00;;
45887;SDS011;31595;51.418;7.572;2023-11-21T13:25:49;16.95;;;12.13;;
45887;SDS011;31595;51.418;7.572;2023-11-21T13:28:16;13.98;;;10.80;;
45887;SDS011;31595;51.418;7.572;2023-11-21T13:30:43;17.02;;;11.88;;
45887;SDS011;31595;51.418;7.572;2023-11-21T13:33:12;18.55;;;13.13;;
45887;SDS011;31595;51.418;7.572;2023-11-21T13:35:43;17.58;;;11.98;;
45887;SDS011;31595;51.418;7.572;2023-11-21T13:38:13;16.80;;;11.98;;
45887;SDS011;31595;51.418;7.572;2023-11-21T13:40:46;20.35;;;13.35;;
45887;SDS011;31595;51.418;7.572;2023-11-21T13:43:15;17.23;;;11.52;;
45887;SDS011;31595;51.418;7.572;2023-11-21T13:45:44;17.85;;;12.65;;
45887;SDS011;31595;51.418;7.572;2023-11-21T13:48:13;14.95;;;11.10;;
45887;SDS011;31595;51.418;7.572;2023-11-21T13:50:40;15.63;;;11.05;;
45887;SDS011;31595;51.418;7.572;2023-11-21T13:53:14;15.70;;;11.35;;
45887;SDS011;31595;51.418;7.572;2023-11-21T13:55:47;15.30;;;11.05;;
45887;SDS011;31595;51.418;7.572;2023-11-21T13:58:14;15.63;;;11.65;;
45887;SDS011;31595;51.418;7.572;2023-11-21T14:00:47;18.10;;;14.00;;
45887;SDS011;31595;51.418;7.572;2023-11-21T14:03:23;16.63;;;14.25;;
45887;SDS011;31595;51.418;7.572;2023-11-21T14:05:58;16.20;;;11.57;;
45887;SDS011;31595;51.418;7.572;2023-11-21T14:08:26;17.13;;;11.80;;
45887;SDS011;31595;51.418;7.572;2023-11-21T14:10:54;15.23;;;11.77;;
45887;SDS011;31595;51.418;7.572;2023-11-21T14:13:23;17.92;;;12.60;;
45887;SDS011;31595;51.418;7.572;2023-11-21T14:15:50;13.00;;;9.27;;
45887;SDS011;31595;51.418;7.572;2023-11-21T14:18:24;17.33;;;10.77;;
45887;SDS011;31595;51.418;7.572;2023-11-21T14:20:55;15.18;;;10.48;;
45887;SDS011;31595;51.418;7.572;2023-11-21T14:23:22;12.98;;;9.45;;
45887;SDS011;31595;51.418;7.572;2023-11-21T14:25:49;14.40;;;10.18;;
45887;SDS011;31595;51.418;7.572;2023-11-21T14:28:17;14.23;;;10.30;;
45887;SDS011;31595;51.418;7.572;2023-11-21T14:30:44;15.23;;;10.00;;
45887;SDS011;31595;51.418;7.572;2023-11-21T14:33:12;12.18;;;9.32;;
45887;SDS011;31595;51.418;7.572;2023-11-21T14:35:40;12.63;;;9.13;;
45887;SDS011;31595;51.418;7.572;2023-11-21T14:38:07;16.10;;;11.68;;
45887;SDS011;31595;51.418;7.572;2023-11-21T14:40:35;17.05;;;9.88;;
45887;SDS011;31595;51.418;7.572;2023-11-21T14:43:02;11.30;;;8.93;;
45887;SDS011;31595;51.418;7.572;2023-11-21T14:45:31;12.80;;;9.15;;
45887;SDS011;31595;51.418;7.572;2023-11-21T14:47:58;10.48;;;7.88;;
45887;SDS011;31595;51.418;7.572;2023-11-21T14:50:32;14.10;;;10.48;;
45887;SDS011;31595;51.418;7.572;2023-11-21T14:53:15;11.40;;;9.20;;
45887;SDS011;31595;51.418;7.572;2023-11-21T14:55:42;10.02;;;8.25;;
45887;SDS011;31595;51.418;7.572;2023-11-21T14:58:23;10.15;;;8.07;;
45887;SDS011;31595;51.418;7.572;2023-11-21T15:03:23;10.13;;;8.15;;
45887;SDS011;31595;51.418;7.572;2023-11-21T15:06:08;8.57;;;7.28;;
45887;SDS011;31595;51.418;7.572;2023-11-21T15:08:54;7.80;;;6.75;;
45887;SDS011;31595;51.418;7.572;2023-11-21T15:11:40;9.65;;;7.85;;
45887;SDS011;31595;51.418;7.572;2023-11-21T15:14:07;10.95;;;8.25;;
45887;SDS011;31595;51.418;7.572;2023-11-21T15:16:35;12.73;;;10.88;;
45887;SDS011;31595;51.418;7.572;2023-11-21T15:19:05;12.93;;;11.48;;
45887;SDS011;31595;51.418;7.572;2023-11-21T15:21:32;15.98;;;13.55;;
45887;SDS011;31595;51.418;7.572;2023-11-21T15:24:00;15.02;;;12.82;;
45887;SDS011;31595;51.418;7.572;2023-11-21T15:26:27;15.48;;;13.75;;
45887;SDS011;31595;51.418;7.572;2023-11-21T15:28:55;17.30;;;14.60;;
45887;SDS011;31595;51.418;7.572;2023-11-21T15:31:21;13.93;;;12.48;;
45887;SDS011;31595;51.418;7.572;2023-11-21T15:33:50;16.05;;;13.85;;
45887;SDS011;31595;51.418;7.572;2023-11-21T15:36:17;14.13;;;12.10;;
45887;SDS011;31595;51.418;7.572;2023-11-21T15:38:45;15.65;;;13.98;;
45887;SDS011;31595;51.418;7.572;2023-11-21T15:41:13;18.30;;;15.75;;
45887;SDS011;31595;51.418;7.572;2023-11-21T15:43:39;20.33;;;16.70;;
45887;SDS011;31595;51.418;7.572;2023-11-21T15:46:06;18.38;;;16.05;;
45887;SDS011;31595;51.418;7.572;2023-11-21T15:48:34;18.33;;;16.40;;
45887;SDS011;31595;51.418;7.572;2023-11-21T15:51:01;19.73;;;17.63;;
45887;SDS011;31595;51.418;7.572;2023-11-21T15:53:30;21.27;;;18.57;;
45887;SDS011;31595;51.418;7.572;2023-11-21T15:55:57;20.58;;;18.23;;
45887;SDS011;31595;51.418;7.572;2023-11-21T15:58:28;20.20;;;17.38;;
45887;SDS011;31595;51.418;7.572;2023-11-21T16:00:55;17.83;;;15.75;;
45887;SDS011;31595;51.418;7.572;2023-11-21T16:03:23;17.15;;;14.93;;
45887;SDS011;31595;51.418;7.572;2023-11-21T16:05:49;18.27;;;15.38;;
45887;SDS011;31595;51.418;7.572;2023-11-21T16:08:16;15.68;;;13.98;;
45887;SDS011;31595;51.418;7.572;2023-11-21T16:10:43;15.10;;;13.50;;
45887;SDS011;31595;51.418;7.572;2023-11-21T16:13:10;16.42;;;14.02;;
45887;SDS011;31595;51.418;7.572;2023-11-21T16:15:40;16.83;;;13.95;;
45887;SDS011;31595;51.418;7.572;2023-11-21T16:18:08;15.05;;;13.50;;
45887;SDS011;31595;51.418;7.572;2023-11-21T16:20:35;14.75;;;13.25;;
45887;SDS011;31595;51.418;7.572;2023-11-21T16:23:02;15.77;;;13.75;;
45887;SDS011;31595;51.418;7.572;2023-11-21T16:25:29;14.23;;;12.65;;
45887;SDS011;31595;51.418;7.572;2023-11-21T16:27:56;15.27;;;13.50;;
45887;SDS011;31595;51.418;7.572;2023-11-21T16:30:29;13.95;;;12.45;;
45887;SDS011;31595;51.418;7.572;2023-11-21T16:33:00;14.52;;;12.75;;
45887;SDS011;31595;51.418;7.572;2023-11-21T16:37:54;14.98;;;13.05;;
45887;SDS011;31595;51.418;7.572;2023-11-21T16:40:22;15.23;;;13.13;;
45887;SDS011;31595;51.418;7.572;2023-11-21T16:42:49;16.25;;;14.27;;
45887;SDS011;31595;51.418;7.572;2023-11-21T16:45:16;17.35;;;14.77;;
45887;SDS011;31595;51.418;7.572;2023-11-21T16:47:43;14.95;;;12.52;;
45887;SDS011;31595;51.418;7.572;2023-11-21T16:50:11;12.48;;;11.18;;
45887;SDS011;31595;51.418;7.572;2023-11-21T16:52:39;12.15;;;10.25;;
45887;SDS011;31595;51.418;7.572;2023-11-21T16:55:08;11.73;;;9.65;;
45887;SDS011;31595;51.418;7.572;2023-11-21T16:57:35;12.40;;;10.48;;
45887;SDS011;31595;51.418;7.572;2023-11-21T17:00:03;12.48;;;11.18;;
45887;SDS011;31595;51.418;7.572;2023-11-21T17:02:32;14.05;;;10.23;;
45887;SDS011;31595;51.418;7.572;2023-11-21T17:04:59;12.00;;;10.50;;
45887;SDS011;31595;51.418;7.572;2023-11-21T17:07:27;12.30;;;10.07;;
45887;SDS011;31595;51.418;7.572;2023-11-21T17:09:54;11.38;;;10.18;;
45887;SDS011;31595;51.418;7.572;2023-11-21T17:12:22;11.80;;;10.50;;